Time;durP1;ratioP1;P1;durP2;ratioP2;P2;SDS_P1;SDS_P2;PMS_P1;PMS_P2;Temp;Humidity;BMP_temperature;BMP_pressure;BME280_temperature;BME280_humidity;BME280_pressure;Samples;Min_cycle;Max_cycle;Signal;HPM_P1;HPM_P2
2023/11/16 00:01:25;;;;;;;;;;;;;;;;;;5034883;28;19930;-78
2023/11/16 00:03:53;;;;;;;;;;;;;;;;;;5035851;28;19929;-79
2023/11/16 00:06:20;;;;;;;;;;;;;;;;;;5035532;28;19925;-79
2023/11/16 00:08:48;;;;;;;;;;;;;;;;;;5036015;28;20387;-78
2023/11/16 00:11:15;;;;;;;;;;;;;;;;;;5035098;28;19925;-78
2023/11/16 00:13:44;;;;;;;;;;;;;;;;;;5036277;28;19968;-79
2023/11/16 00:16:11;;;;;;;;;;;;;;;;;;5033464;28;19929;-79
2023/11/16 00:18:41;;;;;;;;;;;;;;;;;;5016799;28;19979;-78
2023/11/16 00:21:08;;;;;;;;;;;;;;;;;;5017683;28;19979;-78
2023/11/16 00:23:35;;;;;;;;;;;;;;;;;;5028218;28;19926;-78
2023/11/16 00:26:02;;;;;;;;;;;;;;;;;;5030571;28;19961;-77
2023/11/16 00:28:29;;;;;;;;;;;;;;;;;;5035138;28;19948;-78
2023/11/16 00:30:56;;;;;;;;;;;;;;;;;;5034763;28;19979;-77
2023/11/16 00:33:23;;;;;;;;;;;;;;;;;;5033290;28;20388;-75
2023/11/16 00:35:51;;;;;;;;;;;;;;;;;;5033790;28;20352;-76
2023/11/16 00:38:18;;;;;;;;;;;;;;;;;;5034039;28;19925;-77
2023/11/16 00:40:46;;;;;;;;;;;;;;;;;;5033758;28;19925;-76
2023/11/16 00:43:13;;;;;;;;;;;;;;;;;;5034064;28;19940;-76
2023/11/16 00:45:41;;;;;;;;;;;;;;;;;;5031784;28;19925;-76
2023/11/16 00:48:09;;;;;;;;;;;;;;;;;;5029457;28;19925;-76
2023/11/16 00:50:36;;;;;;;;;;;;;;;;;;5035540;28;19964;-77
2023/11/16 00:53:03;;;;;;;;;;;;;;;;;;5034149;28;19952;-77
2023/11/16 00:55:31;;;;;;;;;;;;;;;;;;5034102;28;20372;-75
2023/11/16 00:57:58;;;;;;;;;;;;;;;;;;5018202;28;20020;-74
2023/11/16 01:00:27;;;;;;;;;;;;;;;;;;5015058;28;20337;-76
2023/11/16 01:02:55;;;;;;;;;;;;;;;;;;5026092;28;19925;-76
2023/11/16 01:05:22;;;;;;;;;;;;;;;;;;5030491;28;20688;-76
2023/11/16 01:07:50;;;;;;;;;;;;;;;;;;5035049;28;19925;-77
2023/11/16 01:10:23;;;;;;;;;;;;;;;;;;5032430;28;20419;-76
2023/11/16 01:12:51;;;;;;;;;;;;;;;;;;5018419;28;19948;-77
2023/11/16 01:15:18;;;;;;;;;;;;;;;;;;5035190;28;19933;-75
2023/11/16 01:17:46;;;;;;;;;;;;;;;;;;5036874;28;19925;-77
2023/11/16 01:20:18;;;;;;;;;;;;;;;;;;5038128;28;19964;-76
2023/11/16 01:22:50;;;;;;;;;;;;;;;;;;5026615;28;19926;-76
2023/11/16 01:25:20;;;;;;;;;;;;;;;;;;5028761;28;20344;-75
2023/11/16 01:27:51;;;;;;;;;;;;;;;;;;5038079;28;20418;-76
2023/11/16 01:30:17;;;;;;;;;;;;;;;;;;5037477;28;20376;-76
2023/11/16 01:32:45;;;;;;;;;;;;;;;;;;5038690;28;20008;-75
2023/11/16 01:35:12;;;;;;;;;;;;;;;;;;5034647;28;19925;-76
2023/11/16 01:37:39;;;;;;;;;;;;;;;;;;5023863;28;19981;-76
2023/11/16 01:40:06;;;;;;;;;;;;;;;;;;5028927;28;19971;-76
2023/11/16 01:42:34;;;;;;;;;;;;;;;;;;5038152;28;20015;-76
2023/11/16 01:45:01;;;;;;;;;;;;;;;;;;5035765;28;19933;-76
2023/11/16 01:47:28;;;;;;;;;;;;;;;;;;5036862;28;19976;-77
2023/11/16 01:49:55;;;;;;;;;;;;;;;;;;5037773;28;20015;-77
2023/11/16 01:52:23;;;;;;;;;;;;;;;;;;5038369;28;19931;-76
2023/11/16 01:54:50;;;;;;;;;;;;;;;;;;5023594;28;20394;-76
2023/11/16 01:57:17;;;;;;;;;;;;;;;;;;5036456;28;19925;-76
2023/11/16 01:59:44;;;;;;;;;;;;;;;;;;5037293;28;19980;-76
2023/11/16 02:02:11;;;;;;;;;;;;;;;;;;5037616;28;20388;-77
2023/11/16 02:04:39;;;;;;;;;;;;;;;;;;5034771;28;19921;-76
2023/11/16 02:07:06;;;;;;;;;;;;;;;;;;5031025;28;19977;-77
2023/11/16 02:09:34;;;;;;;;;;;;;;;;;;5036825;28;20054;-77
2023/11/16 02:12:01;;;;;;;;;;;;;;;;;;5036910;28;20352;-77
2023/11/16 02:14:28;;;;;;;;;;;;;;;;;;5036354;28;19926;-77
2023/11/16 02:16:56;;;;;;;;;;;;;;;;;;5034549;28;20368;-77
2023/11/16 02:19:23;;;;;;;;;;;;;;;;;;5036629;28;19964;-77
2023/11/16 02:21:50;;;;;;;;;;;;;;;;;;5037894;28;20444;-77
2023/11/16 02:24:17;;;;;;;;;;;;;;;;;;5037082;28;19987;-77
2023/11/16 02:26:44;;;;;;;;;;;;;;;;;;5030336;28;19925;-77
2023/11/16 02:29:11;;;;;;;;;;;;;;;;;;5037778;28;19965;-77
2023/11/16 02:31:38;;;;;;;;;;;;;;;;;;5036661;28;19975;-77
2023/11/16 02:34:05;;;;;;;;;;;;;;;;;;5037491;28;19976;-77
2023/11/16 02:36:32;;;;;;;;;;;;;;;;;;5037193;28;19979;-77
2023/11/16 02:39:01;;;;;;;;;;;;;;;;;;5038671;28;19929;-78
2023/11/16 02:41:29;;;;;;;;;;;;;;;;;;5037768;28;19925;-78
2023/11/16 02:43:56;;;;;;;;;;;;;;;;;;5037292;28;21227;-80
2023/11/16 02:46:23;;;;;;;;;;;;;;;;;;5036881;28;19925;-78
2023/11/16 02:48:50;;;;;;;;;;;;;;;;;;5037403;28;20004;-78
2023/11/16 02:51:17;;;;;;;;;;;;;;;;;;5037643;28;19975;-77
2023/11/16 02:53:44;;;;;;;;;;;;;;;;;;5037871;28;19952;-78
2023/11/16 02:56:11;;;;;;;;;;;;;;;;;;5036086;28;19931;-77
2023/11/16 02:58:41;;;;;;;;;;;;;;;;;;5037748;28;19925;-78
2023/11/16 03:01:08;;;;;;;;;;;;;;;;;;5036749;28;19925;-77
2023/11/16 03:03:36;;;;;;;;;;;;;;;;;;5037003;28;19932;-77
2023/11/16 03:06:03;;;;;;;;;;;;;;;;;;5036435;28;19947;-76
2023/11/16 03:08:30;;;;;;;;;;;;;;;;;;5035527;28;19929;-78
2023/11/16 03:11:00;;;;;;;;;;;;;;;;;;5036354;28;19932;-76
2023/11/16 03:13:28;;;;;;;;;;;;;;;;;;5036780;28;19931;-77
2023/11/16 03:15:55;;;;;;;;;;;;;;;;;;5035358;28;20373;-76
2023/11/16 03:18:22;;;;;;;;;;;;;;;;;;5036342;28;20364;-76
2023/11/16 03:20:49;;;;;;;;;;;;;;;;;;5036850;28;19925;-76
2023/11/16 03:23:16;;;;;;;;;;;;;;;;;;5028919;28;19925;-76
2023/11/16 03:25:44;;;;;;;;;;;;;;;;;;5034557;28;20067;-76
2023/11/16 03:28:11;;;;;;;;;;;;;;;;;;5033246;28;19933;-77
2023/11/16 03:30:38;;;;;;;;;;;;;;;;;;5015678;28;19932;-77
2023/11/16 03:33:08;;;;;;;;;;;;;;;;;;5016046;28;20538;-76
2023/11/16 03:35:38;;;;;;;;;;;;;;;;;;5027392;28;19960;-77
2023/11/16 03:38:09;;;;;;;;;;;;;;;;;;5035790;28;19925;-77
2023/11/16 03:40:36;;;;;;;;;;;;;;;;;;5036022;28;19996;-78
2023/11/16 03:43:03;;;;;;;;;;;;;;;;;;5035781;28;20340;-77
2023/11/16 03:45:30;;;;;;;;;;;;;;;;;;5036367;28;19932;-79
2023/11/16 03:47:57;;;;;;;;;;;;;;;;;;5032348;28;19980;-78
2023/11/16 03:50:24;;;;;;;;;;;;;;;;;;5036647;28;19932;-78
2023/11/16 03:52:51;;;;;;;;;;;;;;;;;;5036105;28;20384;-77
2023/11/16 03:55:19;;;;;;;;;;;;;;;;;;5036329;28;20387;-78
2023/11/16 03:57:55;;;;;;;;;;;;;;;;;;5121103;27;19916;-78
2023/11/16 04:00:24;;;;;;;;;;;;;;;;;;5110332;28;20414;-78
2023/11/16 04:02:51;;;;;;;;;;;;;;;;;;5093072;28;20015;-79
2023/11/16 04:05:18;;;;;;;;;;;;;;;;;;5093366;28;19978;-78
2023/11/16 04:07:45;;;;;;;;;;;;;;;;;;5094191;28;19924;-77
2023/11/16 04:10:12;;;;;;;;;;;;;;;;;;5094049;28;19924;-78
2023/11/16 04:12:41;;;;;;;;;;;;;;;;;;5104589;28;20073;-78
2023/11/16 04:15:08;;;;;;;;;;;;;;;;;;5098505;28;20024;-79
2023/11/16 04:17:36;;;;;;;;;;;;;;;;;;5095831;28;19928;-76
2023/11/16 04:20:07;;;;;;;;;;;;;;;;;;5100220;28;19924;-77
2023/11/16 04:22:38;;;;;;;;;;;;;;;;;;5100866;28;20431;-78
2023/11/16 04:25:08;;;;;;;;;;;;;;;;;;5106938;28;20011;-77
2023/11/16 04:27:35;;;;;;;;;;;;;;;;;;5107602;28;20404;-77
2023/11/16 04:30:04;;;;;;;;;;;;;;;;;;5103090;28;20011;-77
2023/11/16 04:32:31;;;;;;;;;;;;;;;;;;5101214;28;19951;-78
2023/11/16 04:34:59;;;;;;;;;;;;;;;;;;5104285;28;19924;-77
2023/11/16 04:37:27;;;;;;;;;;;;;;;;;;5106232;28;19949;-77
2023/11/16 04:39:54;;;;;;;;;;;;;;;;;;5110054;28;20365;-76
2023/11/16 04:42:21;;;;;;;;;;;;;;;;;;5108574;28;19963;-77
2023/11/16 04:44:49;;;;;;;;;;;;;;;;;;5110028;28;19924;-77
2023/11/16 04:47:16;;;;;;;;;;;;;;;;;;5112219;28;20426;-77
2023/11/16 04:49:44;;;;;;;;;;;;;;;;;;5111504;28;19933;-77
2023/11/16 04:52:11;;;;;;;;;;;;;;;;;;5110555;28;20374;-77
2023/11/16 04:54:38;;;;;;;;;;;;;;;;;;5109961;28;19924;-76
2023/11/16 04:57:07;;;;;;;;;;;;;;;;;;5108228;28;20023;-75
2023/11/16 04:59:34;;;;;;;;;;;;;;;;;;5104870;28;19985;-76
2023/11/16 05:02:01;;;;;;;;;;;;;;;;;;5110764;28;19931;-78
2023/11/16 05:04:28;;;;;;;;;;;;;;;;;;5099159;28;19985;-76
2023/11/16 05:06:55;;;;;;;;;;;;;;;;;;5102416;28;20024;-76
2023/11/16 05:09:22;;;;;;;;;;;;;;;;;;5078676;28;19924;-76
2023/11/16 05:11:50;;;;;;;;;;;;;;;;;;5085496;28;19929;-76
2023/11/16 05:14:19;;;;;;;;;;;;;;;;;;5086343;28;20031;-75
2023/11/16 05:16:46;;;;;;;;;;;;;;;;;;5096357;28;19978;-76
2023/11/16 05:19:14;;;;;;;;;;;;;;;;;;5095088;28;20022;-74
2023/11/16 05:21:41;;;;;;;;;;;;;;;;;;5094193;28;19931;-76
2023/11/16 05:24:08;;;;;;;;;;;;;;;;;;5082104;28;19967;-76
2023/11/16 05:26:35;;;;;;;;;;;;;;;;;;5090915;28;19974;-76
2023/11/16 05:29:04;;;;;;;;;;;;;;;;;;5097017;28;19924;-74
2023/11/16 05:31:31;;;;;;;;;;;;;;;;;;5078594;28;19924;-75
2023/11/16 05:33:58;;;;;;;;;;;;;;;;;;5077849;28;19952;-75
2023/11/16 05:36:27;;;;;;;;;;;;;;;;;;5079473;28;19967;-75
2023/11/16 05:38:54;;;;;;;;;;;;;;;;;;5091204;28;19924;-76
2023/11/16 05:41:22;;;;;;;;;;;;;;;;;;5095654;28;19924;-76
2023/11/16 05:43:49;;;;;;;;;;;;;;;;;;5091064;28;20405;-76
2023/11/16 05:46:16;;;;;;;;;;;;;;;;;;5096796;28;19932;-76
2023/11/16 05:48:43;;;;;;;;;;;;;;;;;;5097136;28;19931;-76
2023/11/16 05:51:10;;;;;;;;;;;;;;;;;;5091012;28;19966;-77
2023/11/16 05:53:38;;;;;;;;;;;;;;;;;;5095250;28;19978;-76
2023/11/16 05:56:05;;;;;;;;;;;;;;;;;;5095547;28;19956;-77
2023/11/16 05:58:32;;;;;;;;;;;;;;;;;;5097390;28;19931;-76
2023/11/16 06:00:59;;;;;;;;;;;;;;;;;;5095287;28;19963;-77
2023/11/16 06:03:27;;;;;;;;;;;;;;;;;;5095925;28;19924;-76
2023/11/16 06:05:54;;;;;;;;;;;;;;;;;;5092449;28;20055;-76
2023/11/16 06:08:22;;;;;;;;;;;;;;;;;;5078344;28;20235;-77
2023/11/16 06:10:50;;;;;;;;;;;;;;;;;;5079652;28;20282;-76
2023/11/16 06:13:22;;;;;;;;;;;;;;;;;;5096434;28;19924;-76
2023/11/16 06:15:49;;;;;;;;;;;;;;;;;;5095590;28;19975;-77
2023/11/16 06:18:16;;;;;;;;;;;;;;;;;;5095585;28;20352;-77
2023/11/16 06:20:44;;;;;;;;;;;;;;;;;;5093249;28;20303;-74
2023/11/16 06:23:11;;;;;;;;;;;;;;;;;;5076400;28;20346;-73
2023/11/16 06:25:39;;;;;;;;;;;;;;;;;;5087740;28;20408;-75
2023/11/16 06:28:06;;;;;;;;;;;;;;;;;;5095291;28;19924;-77
2023/11/16 06:30:34;;;;;;;;;;;;;;;;;;5089907;28;20373;-77
2023/11/16 06:33:01;;;;;;;;;;;;;;;;;;5083554;28;19924;-76
2023/11/16 06:35:28;;;;;;;;;;;;;;;;;;5096006;28;19954;-77
2023/11/16 06:37:55;;;;;;;;;;;;;;;;;;5096314;28;20014;-77
2023/11/16 06:40:22;;;;;;;;;;;;;;;;;;5089785;28;19927;-76
2023/11/16 06:42:49;;;;;;;;;;;;;;;;;;5086089;28;19925;-76
2023/11/16 06:45:16;;;;;;;;;;;;;;;;;;5083086;28;20015;-77
2023/11/16 06:47:48;;;;;;;;;;;;;;;;;;5087367;28;19979;-77
2023/11/16 06:50:16;;;;;;;;;;;;;;;;;;5093296;28;19928;-75
2023/11/16 06:52:43;;;;;;;;;;;;;;;;;;5082861;28;19924;-76
2023/11/16 06:55:12;;;;;;;;;;;;;;;;;;5087274;28;19931;-75
2023/11/16 06:57:40;;;;;;;;;;;;;;;;;;5093398;28;19924;-75
2023/11/16 07:00:14;;;;;;;;;;;;;;;;;;5087750;28;19977;-76
2023/11/16 07:02:43;;;;;;;;;;;;;;;;;;5082631;28;19928;-76
2023/11/16 07:05:10;;;;;;;;;;;;;;;;;;5083648;28;20300;-75
2023/11/16 07:07:39;;;;;;;;;;;;;;;;;;5085459;28;20042;-77
2023/11/16 07:10:06;;;;;;;;;;;;;;;;;;5090521;28;20311;-76
2023/11/16 07:12:33;;;;;;;;;;;;;;;;;;5090219;28;19928;-77
2023/11/16 07:15:01;;;;;;;;;;;;;;;;;;5091002;28;20007;-80
2023/11/16 07:17:28;;;;;;;;;;;;;;;;;;5089417;28;19970;-72
2023/11/16 07:19:55;;;;;;;;;;;;;;;;;;5095166;28;19924;-73
2023/11/16 07:22:22;;;;;;;;;;;;;;;;;;5089705;28;19974;-73
2023/11/16 07:24:50;;;;;;;;;;;;;;;;;;5088203;28;20454;-72
2023/11/16 07:27:17;;;;;;;;;;;;;;;;;;5090423;28;19963;-72
2023/11/16 07:29:44;;;;;;;;;;;;;;;;;;5084871;28;20007;-72
2023/11/16 07:32:11;;;;;;;;;;;;;;;;;;5088935;28;20059;-72
2023/11/16 07:34:39;;;;;;;;;;;;;;;;;;5086135;28;19924;-73
2023/11/16 07:37:06;;;;;;;;;;;;;;;;;;5081077;28;20387;-73
2023/11/16 07:39:32;;;;;;;;;;;;;;;;;;5079851;28;19928;-72
2023/11/16 07:42:01;;;;;;;;;;;;;;;;;;5079268;28;20390;-74
2023/11/16 07:44:28;;;;;;;;;;;;;;;;;;5080040;28;20349;-73
2023/11/16 07:46:55;;;;;;;;;;;;;;;;;;5088855;28;19971;-72
2023/11/16 07:49:23;;;;;;;;;;;;;;;;;;5091963;28;19924;-72
2023/11/16 07:51:51;;;;;;;;;;;;;;;;;;5089905;28;20015;-72
2023/11/16 07:54:17;;;;;;;;;;;;;;;;;;5089225;28;20378;-72
2023/11/16 07:56:49;;;;;;;;;;;;;;;;;;5088930;28;20467;-73
2023/11/16 07:59:18;;;;;;;;;;;;;;;;;;5092630;28;19924;-72
2023/11/16 08:01:54;;;;;;;;;;;;;;;;;;5103415;28;19924;-75
2023/11/16 08:04:20;;;;;;;;;;;;;;;;;;5093362;28;20006;-75
2023/11/16 08:06:48;;;;;;;;;;;;;;;;;;5088856;28;20600;-75
2023/11/16 08:09:16;;;;;;;;;;;;;;;;;;5072300;28;19924;-74
2023/11/16 08:11:44;;;;;;;;;;;;;;;;;;5090405;28;19928;-75
2023/11/16 08:14:12;;;;;;;;;;;;;;;;;;5091590;28;20427;-75
2023/11/16 08:16:39;;;;;;;;;;;;;;;;;;5091539;28;19924;-75
2023/11/16 08:19:06;;;;;;;;;;;;;;;;;;5091716;28;20396;-74
2023/11/16 08:21:36;;;;;;;;;;;;;;;;;;5083323;28;19924;-74
2023/11/16 08:24:05;;;;;;;;;;;;;;;;;;5084081;28;19924;-69
2023/11/16 08:26:32;;;;;;;;;;;;;;;;;;5074916;28;19932;-74
2023/11/16 08:28:59;;;;;;;;;;;;;;;;;;5072708;28;20338;-75
2023/11/16 08:31:28;;;;;;;;;;;;;;;;;;5087858;28;19924;-75
2023/11/16 08:33:55;;;;;;;;;;;;;;;;;;5085006;28;19974;-74
2023/11/16 08:36:22;;;;;;;;;;;;;;;;;;5087483;28;19963;-71
2023/11/16 08:38:50;;;;;;;;;;;;;;;;;;5087169;28;19958;-76
2023/11/16 08:41:17;;;;;;;;;;;;;;;;;;5086966;28;19932;-74
2023/11/16 08:43:44;;;;;;;;;;;;;;;;;;5093490;28;20276;-75
2023/11/16 08:46:17;;;;;;;;;;;;;;;;;;5090546;28;20340;-71
2023/11/16 08:48:47;;;;;;;;;;;;;;;;;;5075201;28;20387;-71
2023/11/16 08:51:16;;;;;;;;;;;;;;;;;;5089426;28;20299;-70
2023/11/16 08:53:43;;;;;;;;;;;;;;;;;;5084729;28;19935;-70
2023/11/16 08:56:11;;;;;;;;;;;;;;;;;;5092756;28;19988;-70
2023/11/16 08:58:39;;;;;;;;;;;;;;;;;;5091151;28;20353;-70
2023/11/16 09:01:06;;;;;;;;;;;;;;;;;;5093917;28;20027;-71
2023/11/16 09:03:33;;;;;;;;;;;;;;;;;;5084383;28;20002;-73
2023/11/16 09:06:02;;;;;;;;;;;;;;;;;;5081883;28;19924;-74
2023/11/16 09:08:29;;;;;;;;;;;;;;;;;;5085968;28;19928;-73
2023/11/16 09:10:56;;;;;;;;;;;;;;;;;;5088074;28;19979;-74
2023/11/16 09:13:23;;;;;;;;;;;;;;;;;;5088564;28;19959;-74
2023/11/16 09:15:50;;;;;;;;;;;;;;;;;;5086959;28;19931;-73
2023/11/16 09:18:17;;;;;;;;;;;;;;;;;;5091153;28;20342;-74
2023/11/16 09:20:46;;;;;;;;;;;;;;;;;;5082824;28;19997;-74
2023/11/16 09:23:13;;;;;;;;;;;;;;;;;;5084505;28;19928;-73
2023/11/16 09:25:40;;;;;;;;;;;;;;;;;;5081138;28;20035;-73
2023/11/16 09:28:07;;;;;;;;;;;;;;;;;;5091993;28;19928;-72
2023/11/16 09:30:38;;;;;;;;;;;;;;;;;;5087034;28;19932;-73
2023/11/16 09:33:08;;;;;;;;;;;;;;;;;;5079220;28;20532;-73
2023/11/16 09:35:35;;;;;;;;;;;;;;;;;;5080559;28;19924;-73
2023/11/16 09:38:08;;;;;;;;;;;;;;;;;;5091350;28;20661;-73
2023/11/16 09:40:35;;;;;;;;;;;;;;;;;;5084370;28;19929;-74
2023/11/16 09:43:16;;;;;;;;;;;;;;;;;;5087684;28;19962;-74
2023/11/16 09:45:43;;;;;;;;;;;;;;;;;;5089216;28;20015;-74
2023/11/16 09:48:12;;;;;;;;;;;;;;;;;;5082577;28;19967;-74
2023/11/16 09:50:41;;;;;;;;;;;;;;;;;;5088767;28;20378;-73
2023/11/16 09:53:08;;;;;;;;;;;;;;;;;;5090027;28;19924;-74
2023/11/16 09:55:37;;;;;;;;;;;;;;;;;;5079921;28;19924;-74
2023/11/16 09:58:08;;;;;;;;;;;;;;;;;;5087269;28;19925;-74
2023/11/16 10:00:35;;;;;;;;;;;;;;;;;;5083629;28;19928;-75
2023/11/16 10:03:05;;;;;;;;;;;;;;;;;;5087196;28;19970;-74
2023/11/16 10:05:35;;;;;;;;;;;;;;;;;;5080560;28;19924;-74
2023/11/16 10:08:08;;;;;;;;;;;;;;;;;;5084642;28;19924;-74
2023/11/16 10:10:35;;;;;;;;;;;;;;;;;;5082552;28;19932;-74
2023/11/16 10:13:02;;;;;;;;;;;;;;;;;;5088908;28;20011;-74
2023/11/16 10:15:30;;;;;;;;;;;;;;;;;;5086605;28;19932;-77
2023/11/16 10:17:57;;;;;;;;;;;;;;;;;;5085792;28;19954;-78
2023/11/16 10:20:25;;;;;;;;;;;;;;;;;;5094220;28;20019;-79
2023/11/16 10:22:53;;;;;;;;;;;;;;;;;;5088881;28;20019;-76
2023/11/16 10:25:23;;;;;;;;;;;;;;;;;;5087569;28;19924;-73
2023/11/16 10:27:50;;;;;;;;;;;;;;;;;;5092898;28;19924;-73
2023/11/16 10:30:18;;;;;;;;;;;;;;;;;;5082936;28;20276;-74
2023/11/16 10:32:47;;;;;;;;;;;;;;;;;;5089773;28;20348;-73
2023/11/16 10:35:14;;;;;;;;;;;;;;;;;;5088890;28;20295;-73
2023/11/16 10:37:41;;;;;;;;;;;;;;;;;;5088309;28;20315;-72
2023/11/16 10:40:10;;;;;;;;;;;;;;;;;;5077703;28;20035;-73
2023/11/16 10:42:37;;;;;;;;;;;;;;;;;;5085135;28;19928;-72
2023/11/16 10:45:04;;;;;;;;;;;;;;;;;;5080720;28;19932;-71
2023/11/16 10:47:32;;;;;;;;;;;;;;;;;;5085270;28;19924;-75
2023/11/16 10:49:59;;;;;;;;;;;;;;;;;;5086988;28;20436;-74
2023/11/16 10:52:26;;;;;;;;;;;;;;;;;;5083954;28;20013;-72
2023/11/16 10:54:53;;;;;;;;;;;;;;;;;;5091918;28;20102;-74
2023/11/16 10:57:20;;;;;;;;;;;;;;;;;;5086659;28;19924;-74
2023/11/16 10:59:50;;;;;;;;;;;;;;;;;;5081831;28;19924;-73
2023/11/16 11:02:17;;;;;;;;;;;;;;;;;;5085714;28;19990;-73
2023/11/16 11:04:44;;;;;;;;;;;;;;;;;;5084721;28;19946;-74
2023/11/16 11:07:12;;;;;;;;;;;;;;;;;;5082072;28;20414;-72
2023/11/16 11:09:39;;;;;;;;;;;;;;;;;;5085869;28;19935;-73
2023/11/16 11:12:12;;;;;;;;;;;;;;;;;;5085170;28;20423;-73
2023/11/16 11:14:39;;;;;;;;;;;;;;;;;;5086408;28;19932;-73
2023/11/16 11:17:08;;;;;;;;;;;;;;;;;;5081987;28;19938;-73
2023/11/16 11:19:36;;;;;;;;;;;;;;;;;;5084400;28;19967;-75
2023/11/16 11:22:06;;;;;;;;;;;;;;;;;;5079740;28;19929;-74
2023/11/16 11:24:33;;;;;;;;;;;;;;;;;;5084515;28;20336;-74
2023/11/16 11:27:01;;;;;;;;;;;;;;;;;;5082905;28;19931;-74
2023/11/16 11:29:28;;;;;;;;;;;;;;;;;;5087102;28;19924;-76
2023/11/16 11:32:00;;;;;;;;;;;;;;;;;;5083667;28;19932;-74
2023/11/16 11:34:27;;;;;;;;;;;;;;;;;;5079621;28;19983;-73
2023/11/16 11:36:55;;;;;;;;;;;;;;;;;;5079453;28;20353;-74
2023/11/16 11:39:26;;;;;;;;;;;;;;;;;;5076906;28;19931;-72
2023/11/16 11:41:55;;;;;;;;;;;;;;;;;;5082600;28;19925;-73
2023/11/16 11:44:23;;;;;;;;;;;;;;;;;;5081239;28;19968;-74
2023/11/16 11:46:50;;;;;;;;;;;;;;;;;;5089494;28;19946;-73
2023/11/16 11:49:18;;;;;;;;;;;;;;;;;;5074566;28;20391;-73
2023/11/16 11:51:45;;;;;;;;;;;;;;;;;;5075872;28;20389;-73
2023/11/16 11:54:13;;;;;;;;;;;;;;;;;;5088592;28;19981;-74
2023/11/16 11:56:40;;;;;;;;;;;;;;;;;;5090509;28;19924;-74
2023/11/16 11:59:08;;;;;;;;;;;;;;;;;;5082774;28;19924;-74
2023/11/16 12:01:35;;;;;;;;;;;;;;;;;;5081215;28;19925;-74
2023/11/16 12:04:04;;;;;;;;;;;;;;;;;;5086110;28;19928;-75
2023/11/16 12:06:31;;;;;;;;;;;;;;;;;;5086331;28;19924;-74
2023/11/16 12:08:58;;;;;;;;;;;;;;;;;;5080147;28;19963;-74
2023/11/16 12:11:26;;;;;;;;;;;;;;;;;;5083775;28;20399;-75
2023/11/16 12:13:53;;;;;;;;;;;;;;;;;;5084851;28;19931;-74
2023/11/16 12:16:23;;;;;;;;;;;;;;;;;;5088135;28;19977;-75
2023/11/16 12:18:51;;;;;;;;;;;;;;;;;;5085903;28;19936;-75
2023/11/16 12:21:18;;;;;;;;;;;;;;;;;;5085742;28;20015;-75
2023/11/16 12:23:47;;;;;;;;;;;;;;;;;;5082547;28;19938;-75
2023/11/16 12:26:15;;;;;;;;;;;;;;;;;;5081310;28;19924;-75
2023/11/16 12:28:43;;;;;;;;;;;;;;;;;;5084504;28;20383;-76
2023/11/16 12:31:11;;;;;;;;;;;;;;;;;;5079234;28;19932;-76
2023/11/16 12:33:38;;;;;;;;;;;;;;;;;;5085018;28;20007;-76
2023/11/16 12:36:05;;;;;;;;;;;;;;;;;;5078227;28;19932;-76
2023/11/16 12:38:35;;;;;;;;;;;;;;;;;;5085146;28;19968;-75
2023/11/16 12:41:02;;;;;;;;;;;;;;;;;;5088676;28;19963;-76
2023/11/16 12:43:29;;;;;;;;;;;;;;;;;;5086343;28;20371;-76
2023/11/16 12:45:56;;;;;;;;;;;;;;;;;;5085705;28;20369;-78
2023/11/16 12:48:23;;;;;;;;;;;;;;;;;;5095204;28;20031;-79
2023/11/16 12:50:50;;;;;;;;;;;;;;;;;;5082897;28;20306;-78
2023/11/16 12:53:17;;;;;;;;;;;;;;;;;;5089327;28;19924;-79
2023/11/16 12:55:44;;;;;;;;;;;;;;;;;;5078605;28;21065;-78
2023/11/16 12:58:12;;;;;;;;;;;;;;;;;;5087941;28;20014;-78
2023/11/16 13:00:39;;;;;;;;;;;;;;;;;;5093701;28;19924;-77
2023/11/16 13:03:06;;;;;;;;;;;;;;;;;;5083434;28;19924;-75
2023/11/16 13:05:34;;;;;;;;;;;;;;;;;;5089183;28;20011;-77
2023/11/16 13:08:01;;;;;;;;;;;;;;;;;;5088753;28;19924;-75
2023/11/16 13:10:28;;;;;;;;;;;;;;;;;;5083989;28;19978;-74
2023/11/16 13:12:55;;;;;;;;;;;;;;;;;;5082514;28;19963;-73
2023/11/16 13:15:22;;;;;;;;;;;;;;;;;;5088026;28;19931;-74
2023/11/16 13:17:49;;;;;;;;;;;;;;;;;;5089829;28;19970;-74
2023/11/16 13:20:19;;;;;;;;;;;;;;;;;;5084185;28;20019;-74
2023/11/16 13:22:46;;;;;;;;;;;;;;;;;;5084917;28;19924;-74
2023/11/16 13:25:14;;;;;;;;;;;;;;;;;;5087930;28;19924;-74
2023/11/16 13:27:42;;;;;;;;;;;;;;;;;;5074324;28;19983;-74
2023/11/16 13:30:09;;;;;;;;;;;;;;;;;;5082844;28;19928;-73
2023/11/16 13:32:36;;;;;;;;;;;;;;;;;;5080140;28;19975;-75
2023/11/16 13:35:05;;;;;;;;;;;;;;;;;;5091939;28;20039;-75
2023/11/16 13:37:32;;;;;;;;;;;;;;;;;;5080349;28;19977;-74
2023/11/16 13:39:59;;;;;;;;;;;;;;;;;;5088624;28;20032;-74
2023/11/16 13:42:26;;;;;;;;;;;;;;;;;;5080546;28;20015;-78
2023/11/16 13:44:53;;;;;;;;;;;;;;;;;;5082539;28;19967;-75
2023/11/16 13:47:20;;;;;;;;;;;;;;;;;;5090812;28;19924;-74
2023/11/16 13:49:47;;;;;;;;;;;;;;;;;;5075946;28;19972;-73
2023/11/16 13:52:14;;;;;;;;;;;;;;;;;;5083838;28;20034;-74
2023/11/16 13:54:44;;;;;;;;;;;;;;;;;;5084581;28;20440;-75
2023/11/16 13:57:11;;;;;;;;;;;;;;;;;;5091376;28;19947;-74
2023/11/16 13:59:41;;;;;;;;;;;;;;;;;;5084443;28;19981;-74
2023/11/16 14:02:09;;;;;;;;;;;;;;;;;;5079004;28;19990;-71
2023/11/16 14:04:36;;;;;;;;;;;;;;;;;;5083240;28;19924;-72
2023/11/16 14:07:04;;;;;;;;;;;;;;;;;;5082131;28;19975;-73
2023/11/16 14:09:30;;;;;;;;;;;;;;;;;;5089504;28;20007;-74
2023/11/16 14:11:57;;;;;;;;;;;;;;;;;;5088523;28;20383;-78
2023/11/16 14:14:24;;;;;;;;;;;;;;;;;;5086687;28;20002;-75
2023/11/16 14:16:51;;;;;;;;;;;;;;;;;;5084549;28;20410;-74
2023/11/16 14:19:21;;;;;;;;;;;;;;;;;;5087623;28;20632;-72
2023/11/16 14:21:48;;;;;;;;;;;;;;;;;;5086156;28;19981;-73
2023/11/16 14:24:15;;;;;;;;;;;;;;;;;;5091126;28;19964;-73
2023/11/16 14:26:42;;;;;;;;;;;;;;;;;;5085621;28;19939;-75
2023/11/16 14:29:09;;;;;;;;;;;;;;;;;;5087836;28;20039;-74
2023/11/16 14:31:36;;;;;;;;;;;;;;;;;;5092685;28;19928;-75
2023/11/16 14:34:03;;;;;;;;;;;;;;;;;;5079380;28;19974;-74
2023/11/16 14:36:31;;;;;;;;;;;;;;;;;;5087933;28;20369;-73
2023/11/16 14:38:59;;;;;;;;;;;;;;;;;;5082357;28;19934;-73
2023/11/16 14:41:26;;;;;;;;;;;;;;;;;;5083069;28;20040;-73
2023/11/16 14:43:53;;;;;;;;;;;;;;;;;;5090799;28;19931;-74
2023/11/16 14:46:20;;;;;;;;;;;;;;;;;;5087155;28;19960;-74
2023/11/16 14:48:47;;;;;;;;;;;;;;;;;;5082206;28;20363;-75
2023/11/16 14:51:17;;;;;;;;;;;;;;;;;;5085321;28;19924;-75
2023/11/16 14:53:44;;;;;;;;;;;;;;;;;;5080473;28;19924;-73
2023/11/16 14:56:12;;;;;;;;;;;;;;;;;;5084845;28;19924;-72
2023/11/16 14:58:39;;;;;;;;;;;;;;;;;;5084221;28;19938;-75
2023/11/16 15:01:06;;;;;;;;;;;;;;;;;;5089270;28;19998;-74
2023/11/16 15:03:33;;;;;;;;;;;;;;;;;;5083711;28;19971;-75
2023/11/16 15:06:00;;;;;;;;;;;;;;;;;;5087252;28;19973;-74
2023/11/16 15:08:27;;;;;;;;;;;;;;;;;;5086135;28;20011;-74
2023/11/16 15:10:54;;;;;;;;;;;;;;;;;;5082609;28;20038;-74
2023/11/16 15:13:23;;;;;;;;;;;;;;;;;;5088178;28;19924;-70
2023/11/16 15:15:50;;;;;;;;;;;;;;;;;;5084648;28;19943;-73
2023/11/16 15:18:18;;;;;;;;;;;;;;;;;;5080568;28;19970;-72
2023/11/16 15:20:45;;;;;;;;;;;;;;;;;;5090226;28;19931;-71
2023/11/16 15:23:12;;;;;;;;;;;;;;;;;;5085462;28;20248;-80
2023/11/16 15:25:39;;;;;;;;;;;;;;;;;;5083183;28;19932;-76
2023/11/16 15:28:07;;;;;;;;;;;;;;;;;;5080378;28;19930;-75
2023/11/16 15:30:35;;;;;;;;;;;;;;;;;;5083189;28;19924;-74
2023/11/16 15:33:05;;;;;;;;;;;;;;;;;;5083662;28;20024;-73
2023/11/16 15:35:32;;;;;;;;;;;;;;;;;;5079167;28;19924;-74
2023/11/16 15:38:00;;;;;;;;;;;;;;;;;;5086513;28;19939;-78
2023/11/16 15:40:28;;;;;;;;;;;;;;;;;;5090975;28;19935;-77
2023/11/16 15:42:56;;;;;;;;;;;;;;;;;;5081883;28;19925;-74
2023/11/16 15:45:24;;;;;;;;;;;;;;;;;;5090473;28;19928;-77
2023/11/16 15:47:53;;;;;;;;;;;;;;;;;;5081297;28;19924;-75
2023/11/16 15:50:20;;;;;;;;;;;;;;;;;;5077699;28;19928;-73
2023/11/16 15:52:47;;;;;;;;;;;;;;;;;;5091117;28;20373;-74
2023/11/16 15:55:14;;;;;;;;;;;;;;;;;;5090569;28;19924;-74
2023/11/16 15:57:42;;;;;;;;;;;;;;;;;;5087034;28;19928;-75
2023/11/16 16:00:09;;;;;;;;;;;;;;;;;;5072224;28;19931;-75
2023/11/16 16:02:36;;;;;;;;;;;;;;;;;;5078287;28;20007;-75
2023/11/16 16:05:05;;;;;;;;;;;;;;;;;;5076611;28;20003;-74
2023/11/16 16:07:34;;;;;;;;;;;;;;;;;;5085043;28;19931;-74
2023/11/16 16:10:05;;;;;;;;;;;;;;;;;;5091537;28;19930;-76
2023/11/16 16:12:31;;;;;;;;;;;;;;;;;;5089761;28;20387;-76
2023/11/16 16:14:58;;;;;;;;;;;;;;;;;;5088263;28;19967;-76
2023/11/16 16:17:25;;;;;;;;;;;;;;;;;;5089103;28;20022;-73
2023/11/16 16:19:52;;;;;;;;;;;;;;;;;;5087208;28;20010;-75
2023/11/16 16:22:19;;;;;;;;;;;;;;;;;;5083998;28;19928;-77
2023/11/16 16:24:46;;;;;;;;;;;;;;;;;;5086359;28;20028;-74
2023/11/16 16:27:13;;;;;;;;;;;;;;;;;;5078111;28;20001;-75
2023/11/16 16:29:40;;;;;;;;;;;;;;;;;;5088378;28;19964;-75
2023/11/16 16:32:09;;;;;;;;;;;;;;;;;;5081034;28;19933;-76
2023/11/16 16:34:36;;;;;;;;;;;;;;;;;;5083584;28;19924;-74
2023/11/16 16:37:03;;;;;;;;;;;;;;;;;;5080427;28;20019;-75
2023/11/16 16:39:30;;;;;;;;;;;;;;;;;;5085939;28;19946;-74
2023/11/16 16:41:58;;;;;;;;;;;;;;;;;;5079221;28;19928;-75
2023/11/16 16:44:26;;;;;;;;;;;;;;;;;;5078924;28;19928;-75
2023/11/16 16:46:53;;;;;;;;;;;;;;;;;;5079662;28;19924;-75
2023/11/16 16:49:20;;;;;;;;;;;;;;;;;;5087025;28;20019;-76